sensor_id;sensor_type;location;lat;lon;timestamp;P1;durP1;ratioP1;P2;durP2;ratioP2
43118;SDS011;28729;49.838;8.650;2023-03-16T00:02:23;4.28;;;1.65;;
43118;SDS011;28729;49.838;8.650;2023-03-16T00:06:25;4.78;;;1.92;;
43118;SDS011;28729;49.838;8.650;2023-03-16T00:10:27;2.10;;;0.90;;
43118;SDS011;28729;49.838;8.650;2023-03-16T00:14:29;4.22;;;1.27;;
43118;SDS011;28729;49.838;8.650;2023-03-16T00:18:31;3.38;;;1.48;;
43118;SDS011;28729;49.838;8.650;2023-03-16T00:22:39;4.50;;;1.60;;
43118;SDS011;28729;49.838;8.650;2023-03-16T00:26:42;4.47;;;1.42;;
43118;SDS011;28729;49.838;8.650;2023-03-16T00:30:43;4.78;;;1.40;;
43118;SDS011;28729;49.838;8.650;2023-03-16T00:34:48;2.95;;;1.42;;
43118;SDS011;28729;49.838;8.650;2023-03-16T00:38:51;5.45;;;1.58;;
43118;SDS011;28729;49.838;8.650;2023-03-16T00:42:54;4.15;;;1.33;;
43118;SDS011;28729;49.838;8.650;2023-03-16T00:46:56;3.13;;;1.58;;
43118;SDS011;28729;49.838;8.650;2023-03-16T00:50:58;3.85;;;1.67;;
43118;SDS011;28729;49.838;8.650;2023-03-16T00:54:59;4.00;;;1.50;;
43118;SDS011;28729;49.838;8.650;2023-03-16T00:59:03;2.65;;;1.63;;
43118;SDS011;28729;49.838;8.650;2023-03-16T01:03:05;4.30;;;1.70;;
43118;SDS011;28729;49.838;8.650;2023-03-16T01:07:08;2.88;;;1.35;;
43118;SDS011;28729;49.838;8.650;2023-03-16T01:11:14;2.88;;;1.20;;
43118;SDS011;28729;49.838;8.650;2023-03-16T01:15:17;6.18;;;1.80;;
43118;SDS011;28729;49.838;8.650;2023-03-16T01:19:22;3.72;;;1.42;;
43118;SDS011;28729;49.838;8.650;2023-03-16T01:23:24;2.45;;;1.15;;
43118;SDS011;28729;49.838;8.650;2023-03-16T01:27:25;3.90;;;1.45;;
43118;SDS011;28729;49.838;8.650;2023-03-16T01:31:27;3.20;;;1.70;;
43118;SDS011;28729;49.838;8.650;2023-03-16T01:35:30;4.07;;;1.45;;
43118;SDS011;28729;49.838;8.650;2023-03-16T01:39:32;2.80;;;1.30;;
43118;SDS011;28729;49.838;8.650;2023-03-16T01:43:35;3.97;;;1.42;;
43118;SDS011;28729;49.838;8.650;2023-03-16T01:47:39;4.93;;;1.52;;
43118;SDS011;28729;49.838;8.650;2023-03-16T01:51:47;3.03;;;1.95;;
43118;SDS011;28729;49.838;8.650;2023-03-16T01:55:53;3.53;;;2.05;;
43118;SDS011;28729;49.838;8.650;2023-03-16T02:04:21;7.82;;;1.77;;
43118;SDS011;28729;49.838;8.650;2023-03-16T02:08:32;2.45;;;1.23;;
43118;SDS011;28729;49.838;8.650;2023-03-16T02:12:34;6.00;;;1.60;;
43118;SDS011;28729;49.838;8.650;2023-03-16T02:16:37;3.42;;;1.45;;
43118;SDS011;28729;49.838;8.650;2023-03-16T02:20:41;5.93;;;1.73;;
43118;SDS011;28729;49.838;8.650;2023-03-16T02:24:57;4.72;;;1.50;;
43118;SDS011;28729;49.838;8.650;2023-03-16T02:29:05;4.07;;;1.50;;
43118;SDS011;28729;49.838;8.650;2023-03-16T02:33:25;3.15;;;1.73;;
43118;SDS011;28729;49.838;8.650;2023-03-16T02:37:29;4.40;;;1.58;;
43118;SDS011;28729;49.838;8.650;2023-03-16T02:41:34;4.63;;;1.85;;
43118;SDS011;28729;49.838;8.650;2023-03-16T02:45:38;2.92;;;1.45;;
43118;SDS011;28729;49.838;8.650;2023-03-16T02:49:46;3.47;;;1.60;;
43118;SDS011;28729;49.838;8.650;2023-03-16T02:53:49;3.10;;;1.83;;
43118;SDS011;28729;49.838;8.650;2023-03-16T02:57:53;2.78;;;1.58;;
43118;SDS011;28729;49.838;8.650;2023-03-16T03:01:55;3.90;;;1.80;;
43118;SDS011;28729;49.838;8.650;2023-03-16T03:05:57;3.43;;;1.30;;
43118;SDS011;28729;49.838;8.650;2023-03-16T03:09:59;5.13;;;2.03;;
43118;SDS011;28729;49.838;8.650;2023-03-16T03:14:04;6.10;;;1.92;;
43118;SDS011;28729;49.838;8.650;2023-03-16T03:18:07;5.22;;;2.05;;
43118;SDS011;28729;49.838;8.650;2023-03-16T03:22:09;5.25;;;1.77;;
43118;SDS011;28729;49.838;8.650;2023-03-16T03:26:12;5.05;;;1.77;;
43118;SDS011;28729;49.838;8.650;2023-03-16T03:30:19;5.60;;;1.95;;
43118;SDS011;28729;49.838;8.650;2023-03-16T03:34:22;5.65;;;2.25;;
43118;SDS011;28729;49.838;8.650;2023-03-16T03:38:24;5.23;;;2.37;;
43118;SDS011;28729;49.838;8.650;2023-03-16T03:42:28;6.00;;;1.60;;
43118;SDS011;28729;49.838;8.650;2023-03-16T03:46:30;6.45;;;2.30;;
43118;SDS011;28729;49.838;8.650;2023-03-16T03:50:32;3.13;;;1.43;;
43118;SDS011;28729;49.838;8.650;2023-03-16T03:54:53;5.07;;;1.80;;
43118;SDS011;28729;49.838;8.650;2023-03-16T03:58:55;6.95;;;2.10;;
43118;SDS011;28729;49.838;8.650;2023-03-16T04:03:16;5.50;;;1.95;;
43118;SDS011;28729;49.838;8.650;2023-03-16T04:07:19;5.10;;;1.80;;
43118;SDS011;28729;49.838;8.650;2023-03-16T04:11:23;4.03;;;1.83;;
43118;SDS011;28729;49.838;8.650;2023-03-16T04:15:25;5.60;;;1.98;;
43118;SDS011;28729;49.838;8.650;2023-03-16T04:19:38;4.45;;;1.88;;
43118;SDS011;28729;49.838;8.650;2023-03-16T04:23:46;4.97;;;1.85;;
43118;SDS011;28729;49.838;8.650;2023-03-16T04:27:50;3.80;;;2.08;;
43118;SDS011;28729;49.838;8.650;2023-03-16T04:31:52;5.00;;;2.00;;
43118;SDS011;28729;49.838;8.650;2023-03-16T04:35:56;8.40;;;2.10;;
43118;SDS011;28729;49.838;8.650;2023-03-16T04:39:59;5.95;;;2.38;;
43118;SDS011;28729;49.838;8.650;2023-03-16T04:44:00;6.37;;;2.47;;
43118;SDS011;28729;49.838;8.650;2023-03-16T04:48:02;4.18;;;2.17;;
43118;SDS011;28729;49.838;8.650;2023-03-16T04:52:04;4.47;;;2.03;;
43118;SDS011;28729;49.838;8.650;2023-03-16T04:56:06;4.35;;;1.77;;
43118;SDS011;28729;49.838;8.650;2023-03-16T05:00:09;4.82;;;2.00;;
43118;SDS011;28729;49.838;8.650;2023-03-16T05:04:22;5.63;;;2.38;;
43118;SDS011;28729;49.838;8.650;2023-03-16T05:08:25;6.65;;;2.08;;
43118;SDS011;28729;49.838;8.650;2023-03-16T05:16:33;5.65;;;2.25;;
43118;SDS011;28729;49.838;8.650;2023-03-16T05:20:36;5.00;;;2.17;;
43118;SDS011;28729;49.838;8.650;2023-03-16T05:24:38;8.90;;;2.47;;
43118;SDS011;28729;49.838;8.650;2023-03-16T05:28:40;5.65;;;2.25;;
43118;SDS011;28729;49.838;8.650;2023-03-16T05:32:47;3.83;;;1.80;;
43118;SDS011;28729;49.838;8.650;2023-03-16T05:36:49;5.95;;;2.78;;
43118;SDS011;28729;49.838;8.650;2023-03-16T05:40:52;7.22;;;2.83;;
43118;SDS011;28729;49.838;8.650;2023-03-16T05:45:14;6.30;;;2.85;;
43118;SDS011;28729;49.838;8.650;2023-03-16T05:49:29;5.50;;;1.83;;
43118;SDS011;28729;49.838;8.650;2023-03-16T05:53:34;6.35;;;1.92;;
43118;SDS011;28729;49.838;8.650;2023-03-16T05:57:42;4.60;;;1.95;;
43118;SDS011;28729;49.838;8.650;2023-03-16T06:01:44;6.13;;;2.20;;
43118;SDS011;28729;49.838;8.650;2023-03-16T06:05:47;5.05;;;2.50;;
43118;SDS011;28729;49.838;8.650;2023-03-16T06:09:54;4.45;;;2.35;;
43118;SDS011;28729;49.838;8.650;2023-03-16T06:13:56;4.85;;;2.10;;
43118;SDS011;28729;49.838;8.650;2023-03-16T06:17:59;11.90;;;4.85;;
43118;SDS011;28729;49.838;8.650;2023-03-16T06:22:02;13.05;;;4.50;;
43118;SDS011;28729;49.838;8.650;2023-03-16T06:26:05;15.38;;;6.13;;
43118;SDS011;28729;49.838;8.650;2023-03-16T06:30:10;7.43;;;3.22;;
43118;SDS011;28729;49.838;8.650;2023-03-16T06:34:13;6.03;;;2.50;;
43118;SDS011;28729;49.838;8.650;2023-03-16T06:38:16;3.22;;;1.58;;
43118;SDS011;28729;49.838;8.650;2023-03-16T06:42:30;5.85;;;2.17;;
43118;SDS011;28729;49.838;8.650;2023-03-16T06:46:34;7.63;;;2.00;;
43118;SDS011;28729;49.838;8.650;2023-03-16T06:50:37;5.63;;;2.03;;
43118;SDS011;28729;49.838;8.650;2023-03-16T06:54:40;5.82;;;1.90;;
43118;SDS011;28729;49.838;8.650;2023-03-16T06:58:48;4.43;;;2.17;;
43118;SDS011;28729;49.838;8.650;2023-03-16T07:02:51;4.00;;;1.65;;
43118;SDS011;28729;49.838;8.650;2023-03-16T07:06:54;4.38;;;1.77;;
43118;SDS011;28729;49.838;8.650;2023-03-16T07:10:55;4.78;;;2.13;;
43118;SDS011;28729;49.838;8.650;2023-03-16T07:14:57;4.03;;;1.80;;
43118;SDS011;28729;49.838;8.650;2023-03-16T07:18:59;3.63;;;1.80;;
43118;SDS011;28729;49.838;8.650;2023-03-16T07:23:02;5.95;;;1.85;;
43118;SDS011;28729;49.838;8.650;2023-03-16T07:27:08;4.68;;;1.77;;
43118;SDS011;28729;49.838;8.650;2023-03-16T07:31:15;5.22;;;2.95;;
43118;SDS011;28729;49.838;8.650;2023-03-16T07:35:19;7.13;;;2.95;;
43118;SDS011;28729;49.838;8.650;2023-03-16T07:39:23;5.13;;;2.42;;
43118;SDS011;28729;49.838;8.650;2023-03-16T07:43:31;5.40;;;2.45;;
43118;SDS011;28729;49.838;8.650;2023-03-16T07:47:34;5.70;;;2.55;;
43118;SDS011;28729;49.838;8.650;2023-03-16T07:51:43;4.63;;;2.20;;
43118;SDS011;28729;49.838;8.650;2023-03-16T07:55:47;6.28;;;2.90;;
43118;SDS011;28729;49.838;8.650;2023-03-16T07:59:50;4.88;;;2.67;;
43118;SDS011;28729;49.838;8.650;2023-03-16T08:03:52;5.95;;;2.60;;
43118;SDS011;28729;49.838;8.650;2023-03-16T08:07:56;5.32;;;2.42;;
43118;SDS011;28729;49.838;8.650;2023-03-16T08:12:04;5.45;;;2.45;;
43118;SDS011;28729;49.838;8.650;2023-03-16T08:16:08;4.85;;;2.60;;
43118;SDS011;28729;49.838;8.650;2023-03-16T08:20:18;4.18;;;2.22;;
43118;SDS011;28729;49.838;8.650;2023-03-16T08:28:24;5.47;;;2.40;;
43118;SDS011;28729;49.838;8.650;2023-03-16T08:32:28;4.45;;;2.42;;
43118;SDS011;28729;49.838;8.650;2023-03-16T08:36:32;6.57;;;2.72;;
43118;SDS011;28729;49.838;8.650;2023-03-16T08:40:34;8.45;;;3.05;;
43118;SDS011;28729;49.838;8.650;2023-03-16T08:44:38;4.82;;;2.67;;
43118;SDS011;28729;49.838;8.650;2023-03-16T08:48:41;4.60;;;2.33;;
43118;SDS011;28729;49.838;8.650;2023-03-16T08:52:43;6.35;;;2.97;;
43118;SDS011;28729;49.838;8.650;2023-03-16T08:56:45;6.63;;;2.80;;
43118;SDS011;28729;49.838;8.650;2023-03-16T09:00:46;5.93;;;3.03;;
43118;SDS011;28729;49.838;8.650;2023-03-16T09:04:51;3.85;;;2.25;;
43118;SDS011;28729;49.838;8.650;2023-03-16T09:08:53;6.18;;;2.60;;
43118;SDS011;28729;49.838;8.650;2023-03-16T09:12:56;6.43;;;3.08;;
43118;SDS011;28729;49.838;8.650;2023-03-16T09:16:58;6.90;;;3.25;;
43118;SDS011;28729;49.838;8.650;2023-03-16T09:21:02;6.50;;;3.40;;
43118;SDS011;28729;49.838;8.650;2023-03-16T09:25:06;5.70;;;3.30;;
43118;SDS011;28729;49.838;8.650;2023-03-16T09:29:09;11.40;;;2.90;;
43118;SDS011;28729;49.838;8.650;2023-03-16T09:33:13;8.60;;;3.47;;
43118;SDS011;28729;49.838;8.650;2023-03-16T09:37:14;6.45;;;3.22;;
43118;SDS011;28729;49.838;8.650;2023-03-16T09:45:36;4.88;;;2.47;;
43118;SDS011;28729;49.838;8.650;2023-03-16T09:50:04;6.82;;;3.10;;
43118;SDS011;28729;49.838;8.650;2023-03-16T09:54:12;5.68;;;3.13;;
43118;SDS011;28729;49.838;8.650;2023-03-16T09:58:21;5.03;;;3.00;;
43118;SDS011;28729;49.838;8.650;2023-03-16T10:02:35;5.65;;;3.28;;
43118;SDS011;28729;49.838;8.650;2023-03-16T10:06:52;7.35;;;2.75;;
43118;SDS011;28729;49.838;8.650;2023-03-16T10:15:28;6.30;;;3.50;;
43118;SDS011;28729;49.838;8.650;2023-03-16T10:19:52;5.88;;;3.65;;
43118;SDS011;28729;49.838;8.650;2023-03-16T10:23:59;5.65;;;2.88;;
43118;SDS011;28729;49.838;8.650;2023-03-16T10:32:10;5.03;;;2.58;;
43118;SDS011;28729;49.838;8.650;2023-03-16T10:36:35;8.93;;;2.40;;
43118;SDS011;28729;49.838;8.650;2023-03-16T10:40:40;5.07;;;2.40;;
43118;SDS011;28729;49.838;8.650;2023-03-16T10:44:42;7.50;;;2.70;;
43118;SDS011;28729;49.838;8.650;2023-03-16T10:48:53;4.00;;;2.60;;
43118;SDS011;28729;49.838;8.650;2023-03-16T10:53:00;5.97;;;3.20;;
43118;SDS011;28729;49.838;8.650;2023-03-16T11:01:34;5.05;;;2.83;;
43118;SDS011;28729;49.838;8.650;2023-03-16T11:05:37;5.13;;;2.80;;
43118;SDS011;28729;49.838;8.650;2023-03-16T11:09:39;4.80;;;2.77;;
43118;SDS011;28729;49.838;8.650;2023-03-16T11:13:43;6.43;;;3.30;;
43118;SDS011;28729;49.838;8.650;2023-03-16T11:17:49;5.90;;;3.20;;
43118;SDS011;28729;49.838;8.650;2023-03-16T11:26:32;5.53;;;2.70;;
43118;SDS011;28729;49.838;8.650;2023-03-16T11:30:38;5.57;;;3.08;;
43118;SDS011;28729;49.838;8.650;2023-03-16T11:34:44;4.28;;;1.55;;
43118;SDS011;28729;49.838;8.650;2023-03-16T11:38:48;3.63;;;1.00;;
43118;SDS011;28729;49.838;8.650;2023-03-16T11:43:20;3.95;;;1.50;;
43118;SDS011;28729;49.838;8.650;2023-03-16T11:52:03;4.60;;;1.13;;
43118;SDS011;28729;49.838;8.650;2023-03-16T11:56:36;3.80;;;1.17;;
43118;SDS011;28729;49.838;8.650;2023-03-16T12:01:04;2.13;;;1.10;;
43118;SDS011;28729;49.838;8.650;2023-03-16T12:10:29;1.83;;;0.90;;
43118;SDS011;28729;49.838;8.650;2023-03-16T12:14:40;3.90;;;1.00;;
43118;SDS011;28729;49.838;8.650;2023-03-16T12:18:57;3.63;;;0.88;;
43118;SDS011;28729;49.838;8.650;2023-03-16T12:23:07;2.10;;;1.10;;
43118;SDS011;28729;49.838;8.650;2023-03-16T12:27:14;4.13;;;1.33;;
43118;SDS011;28729;49.838;8.650;2023-03-16T12:31:36;2.28;;;1.02;;
43118;SDS011;28729;49.838;8.650;2023-03-16T12:40:08;1.58;;;1.00;;
43118;SDS011;28729;49.838;8.650;2023-03-16T12:44:37;3.60;;;1.42;;
43118;SDS011;28729;49.838;8.650;2023-03-16T12:48:48;4.25;;;0.90;;
43118;SDS011;28729;49.838;8.650;2023-03-16T12:52:54;1.55;;;1.17;;
43118;SDS011;28729;49.838;8.650;2023-03-16T12:57:06;2.33;;;1.05;;
43118;SDS011;28729;49.838;8.650;2023-03-16T13:01:11;1.83;;;1.08;;
43118;SDS011;28729;49.838;8.650;2023-03-16T13:05:17;2.63;;;1.10;;
43118;SDS011;28729;49.838;8.650;2023-03-16T13:09:34;2.67;;;1.10;;
43118;SDS011;28729;49.838;8.650;2023-03-16T13:13:49;2.45;;;1.08;;
43118;SDS011;28729;49.838;8.650;2023-03-16T13:18:05;1.77;;;0.90;;
43118;SDS011;28729;49.838;8.650;2023-03-16T13:22:25;1.65;;;0.95;;
43118;SDS011;28729;49.838;8.650;2023-03-16T13:26:39;3.35;;;1.10;;
43118;SDS011;28729;49.838;8.650;2023-03-16T13:30:46;2.05;;;0.90;;
43118;SDS011;28729;49.838;8.650;2023-03-16T13:34:51;1.77;;;0.80;;
43118;SDS011;28729;49.838;8.650;2023-03-16T13:43:26;2.88;;;1.02;;
43118;SDS011;28729;49.838;8.650;2023-03-16T13:47:31;2.70;;;0.98;;
43118;SDS011;28729;49.838;8.650;2023-03-16T13:51:33;2.28;;;1.10;;
43118;SDS011;28729;49.838;8.650;2023-03-16T13:55:38;4.35;;;2.03;;
43118;SDS011;28729;49.838;8.650;2023-03-16T13:59:41;3.15;;;0.98;;
43118;SDS011;28729;49.838;8.650;2023-03-16T14:03:46;2.95;;;1.60;;
43118;SDS011;28729;49.838;8.650;2023-03-16T14:07:49;3.05;;;1.10;;
43118;SDS011;28729;49.838;8.650;2023-03-16T14:15:56;2.25;;;0.77;;
43118;SDS011;28729;49.838;8.650;2023-03-16T14:20:02;2.47;;;0.80;;
43118;SDS011;28729;49.838;8.650;2023-03-16T14:24:04;1.05;;;0.77;;
43118;SDS011;28729;49.838;8.650;2023-03-16T14:28:16;2.15;;;1.00;;
43118;SDS011;28729;49.838;8.650;2023-03-16T14:32:29;1.90;;;0.75;;
43118;SDS011;28729;49.838;8.650;2023-03-16T14:36:34;1.60;;;0.80;;
43118;SDS011;28729;49.838;8.650;2023-03-16T14:40:38;2.60;;;0.90;;
43118;SDS011;28729;49.838;8.650;2023-03-16T14:44:41;1.40;;;0.85;;
43118;SDS011;28729;49.838;8.650;2023-03-16T14:48:43;2.40;;;0.90;;
43118;SDS011;28729;49.838;8.650;2023-03-16T14:52:45;1.65;;;0.90;;
43118;SDS011;28729;49.838;8.650;2023-03-16T14:56:49;2.13;;;0.90;;
43118;SDS011;28729;49.838;8.650;2023-03-16T15:00:55;2.58;;;1.15;;
43118;SDS011;28729;49.838;8.650;2023-03-16T15:04:59;5.28;;;1.02;;
43118;SDS011;28729;49.838;8.650;2023-03-16T15:09:03;2.65;;;0.82;;
43118;SDS011;28729;49.838;8.650;2023-03-16T15:13:14;2.97;;;1.10;;
43118;SDS011;28729;49.838;8.650;2023-03-16T15:17:43;2.30;;;1.10;;
43118;SDS011;28729;49.838;8.650;2023-03-16T15:21:46;1.75;;;1.10;;
43118;SDS011;28729;49.838;8.650;2023-03-16T15:25:47;2.00;;;1.25;;
43118;SDS011;28729;49.838;8.650;2023-03-16T15:29:50;3.15;;;0.95;;
43118;SDS011;28729;49.838;8.650;2023-03-16T15:33:52;3.22;;;1.95;;
43118;SDS011;28729;49.838;8.650;2023-03-16T15:37:54;3.58;;;0.90;;
43118;SDS011;28729;49.838;8.650;2023-03-16T15:41:56;2.35;;;1.20;;
43118;SDS011;28729;49.838;8.650;2023-03-16T15:45:58;5.50;;;2.28;;
43118;SDS011;28729;49.838;8.650;2023-03-16T15:50:06;1.58;;;0.93;;
43118;SDS011;28729;49.838;8.650;2023-03-16T15:54:10;2.40;;;1.33;;
43118;SDS011;28729;49.838;8.650;2023-03-16T15:58:16;2.85;;;0.95;;
43118;SDS011;28729;49.838;8.650;2023-03-16T16:02:29;1.73;;;1.00;;
43118;SDS011;28729;49.838;8.650;2023-03-16T16:06:32;2.60;;;1.13;;
43118;SDS011;28729;49.838;8.650;2023-03-16T16:10:34;2.13;;;0.88;;
43118;SDS011;28729;49.838;8.650;2023-03-16T16:14:36;2.83;;;1.10;;
43118;SDS011;28729;49.838;8.650;2023-03-16T16:18:37;2.60;;;1.25;;
43118;SDS011;28729;49.838;8.650;2023-03-16T16:22:40;4.05;;;1.30;;
43118;SDS011;28729;49.838;8.650;2023-03-16T16:26:43;1.87;;;1.33;;
43118;SDS011;28729;49.838;8.650;2023-03-16T16:30:55;2.58;;;1.10;;
43118;SDS011;28729;49.838;8.650;2023-03-16T16:39:28;2.47;;;1.42;;
43118;SDS011;28729;49.838;8.650;2023-03-16T16:43:36;3.58;;;1.38;;
43118;SDS011;28729;49.838;8.650;2023-03-16T16:47:42;2.63;;;1.38;;
43118;SDS011;28729;49.838;8.650;2023-03-16T16:51:43;5.70;;;1.23;;
43118;SDS011;28729;49.838;8.650;2023-03-16T16:59:48;3.50;;;1.05;;
43118;SDS011;28729;49.838;8.650;2023-03-16T17:03:50;3.33;;;1.63;;
43118;SDS011;28729;49.838;8.650;2023-03-16T17:07:52;3.53;;;1.37;;
43118;SDS011;28729;49.838;8.650;2023-03-16T17:11:56;3.40;;;1.40;;
43118;SDS011;28729;49.838;8.650;2023-03-16T17:15:59;3.92;;;1.50;;
43118;SDS011;28729;49.838;8.650;2023-03-16T17:20:01;3.17;;;1.37;;
43118;SDS011;28729;49.838;8.650;2023-03-16T17:24:06;2.28;;;1.20;;
43118;SDS011;28729;49.838;8.650;2023-03-16T17:28:08;3.90;;;1.20;;
43118;SDS011;28729;49.838;8.650;2023-03-16T17:32:19;2.97;;;1.40;;
43118;SDS011;28729;49.838;8.650;2023-03-16T17:36:25;4.70;;;1.75;;
43118;SDS011;28729;49.838;8.650;2023-03-16T17:40:27;4.22;;;2.13;;
43118;SDS011;28729;49.838;8.650;2023-03-16T17:44:33;3.67;;;2.23;;
43118;SDS011;28729;49.838;8.650;2023-03-16T17:48:38;4.40;;;2.08;;
43118;SDS011;28729;49.838;8.650;2023-03-16T17:52:40;5.03;;;2.73;;
43118;SDS011;28729;49.838;8.650;2023-03-16T17:56:42;2.63;;;1.75;;
43118;SDS011;28729;49.838;8.650;2023-03-16T18:00:46;4.82;;;1.95;;
43118;SDS011;28729;49.838;8.650;2023-03-16T18:04:49;3.47;;;1.92;;
43118;SDS011;28729;49.838;8.650;2023-03-16T18:08:51;9.50;;;3.38;;
43118;SDS011;28729;49.838;8.650;2023-03-16T18:12:58;5.13;;;2.83;;
43118;SDS011;28729;49.838;8.650;2023-03-16T18:17:19;7.00;;;3.67;;
43118;SDS011;28729;49.838;8.650;2023-03-16T18:21:28;4.43;;;2.40;;
43118;SDS011;28729;49.838;8.650;2023-03-16T18:25:34;3.23;;;1.83;;
43118;SDS011;28729;49.838;8.650;2023-03-16T18:29:40;4.03;;;2.10;;
43118;SDS011;28729;49.838;8.650;2023-03-16T18:33:43;5.05;;;2.65;;
43118;SDS011;28729;49.838;8.650;2023-03-16T18:37:47;6.07;;;3.22;;
43118;SDS011;28729;49.838;8.650;2023-03-16T18:41:49;7.17;;;2.67;;
43118;SDS011;28729;49.838;8.650;2023-03-16T18:45:51;5.97;;;2.67;;
43118;SDS011;28729;49.838;8.650;2023-03-16T18:49:55;7.40;;;3.35;;
43118;SDS011;28729;49.838;8.650;2023-03-16T18:53:57;7.00;;;3.42;;
43118;SDS011;28729;49.838;8.650;2023-03-16T18:57:58;5.68;;;3.20;;
43118;SDS011;28729;49.838;8.650;2023-03-16T19:02:00;9.63;;;4.35;;
43118;SDS011;28729;49.838;8.650;2023-03-16T19:06:02;7.40;;;3.67;;
43118;SDS011;28729;49.838;8.650;2023-03-16T19:14:26;11.20;;;4.25;;
43118;SDS011;28729;49.838;8.650;2023-03-16T19:18:30;13.63;;;5.72;;
43118;SDS011;28729;49.838;8.650;2023-03-16T19:22:42;7.85;;;3.67;;
43118;SDS011;28729;49.838;8.650;2023-03-16T19:26:46;4.63;;;2.40;;
43118;SDS011;28729;49.838;8.650;2023-03-16T19:30:49;6.25;;;2.70;;
43118;SDS011;28729;49.838;8.650;2023-03-16T19:34:50;6.18;;;2.80;;
43118;SDS011;28729;49.838;8.650;2023-03-16T19:38:53;5.82;;;2.40;;
43118;SDS011;28729;49.838;8.650;2023-03-16T19:42:55;5.05;;;2.63;;
43118;SDS011;28729;49.838;8.650;2023-03-16T19:46:56;5.25;;;2.50;;
43118;SDS011;28729;49.838;8.650;2023-03-16T19:51:00;5.80;;;2.30;;
43118;SDS011;28729;49.838;8.650;2023-03-16T19:55:02;6.70;;;2.70;;
43118;SDS011;28729;49.838;8.650;2023-03-16T19:59:04;3.85;;;1.83;;
43118;SDS011;28729;49.838;8.650;2023-03-16T20:03:07;4.80;;;2.83;;
43118;SDS011;28729;49.838;8.650;2023-03-16T20:07:14;5.88;;;3.67;;
43118;SDS011;28729;49.838;8.650;2023-03-16T20:11:29;9.70;;;5.25;;
43118;SDS011;28729;49.838;8.650;2023-03-16T20:15:32;24.50;;;12.43;;
43118;SDS011;28729;49.838;8.650;2023-03-16T20:19:34;22.80;;;11.20;;
43118;SDS011;28729;49.838;8.650;2023-03-16T20:23:35;19.13;;;9.00;;
43118;SDS011;28729;49.838;8.650;2023-03-16T20:27:37;12.90;;;6.83;;
43118;SDS011;28729;49.838;8.650;2023-03-16T20:31:40;8.30;;;4.60;;
43118;SDS011;28729;49.838;8.650;2023-03-16T20:35:42;6.72;;;3.60;;
43118;SDS011;28729;49.838;8.650;2023-03-16T20:39:44;9.05;;;3.67;;
43118;SDS011;28729;49.838;8.650;2023-03-16T20:43:45;4.78;;;3.08;;
43118;SDS011;28729;49.838;8.650;2023-03-16T20:47:48;5.07;;;3.50;;
43118;SDS011;28729;49.838;8.650;2023-03-16T20:51:50;7.18;;;3.15;;
43118;SDS011;28729;49.838;8.650;2023-03-16T20:55:52;6.27;;;3.13;;
43118;SDS011;28729;49.838;8.650;2023-03-16T20:59:55;5.18;;;2.67;;
43118;SDS011;28729;49.838;8.650;2023-03-16T21:03:57;8.50;;;3.15;;
43118;SDS011;28729;49.838;8.650;2023-03-16T21:08:00;6.40;;;3.30;;
43118;SDS011;28729;49.838;8.650;2023-03-16T21:12:02;6.35;;;4.00;;
43118;SDS011;28729;49.838;8.650;2023-03-16T21:16:04;5.20;;;3.00;;
43118;SDS011;28729;49.838;8.650;2023-03-16T21:20:13;4.90;;;3.10;;
43118;SDS011;28729;49.838;8.650;2023-03-16T21:24:17;6.30;;;3.05;;
43118;SDS011;28729;49.838;8.650;2023-03-16T21:28:19;6.50;;;4.43;;
43118;SDS011;28729;49.838;8.650;2023-03-16T21:32:23;6.80;;;3.03;;
43118;SDS011;28729;49.838;8.650;2023-03-16T21:36:26;9.07;;;2.95;;
43118;SDS011;28729;49.838;8.650;2023-03-16T21:40:28;7.97;;;3.22;;
43118;SDS011;28729;49.838;8.650;2023-03-16T21:44:30;5.20;;;2.85;;
43118;SDS011;28729;49.838;8.650;2023-03-16T21:48:35;5.25;;;3.33;;
43118;SDS011;28729;49.838;8.650;2023-03-16T21:52:39;4.68;;;2.50;;
43118;SDS011;28729;49.838;8.650;2023-03-16T21:56:43;4.75;;;2.55;;
43118;SDS011;28729;49.838;8.650;2023-03-16T22:04:50;5.13;;;2.70;;
43118;SDS011;28729;49.838;8.650;2023-03-16T22:08:53;7.53;;;3.08;;
43118;SDS011;28729;49.838;8.650;2023-03-16T22:12:55;10.32;;;3.42;;
43118;SDS011;28729;49.838;8.650;2023-03-16T22:16:57;5.40;;;2.80;;
43118;SDS011;28729;49.838;8.650;2023-03-16T22:20:59;4.53;;;2.78;;
43118;SDS011;28729;49.838;8.650;2023-03-16T22:25:11;6.35;;;2.85;;
43118;SDS011;28729;49.838;8.650;2023-03-16T22:29:24;6.47;;;2.72;;
43118;SDS011;28729;49.838;8.650;2023-03-16T22:33:31;5.20;;;2.30;;
43118;SDS011;28729;49.838;8.650;2023-03-16T22:37:36;3.90;;;2.67;;
43118;SDS011;28729;49.838;8.650;2023-03-16T22:41:37;6.53;;;2.70;;
43118;SDS011;28729;49.838;8.650;2023-03-16T22:45:39;6.40;;;2.37;;
43118;SDS011;28729;49.838;8.650;2023-03-16T22:49:41;4.63;;;2.47;;
43118;SDS011;28729;49.838;8.650;2023-03-16T22:53:43;4.25;;;2.15;;
43118;SDS011;28729;49.838;8.650;2023-03-16T22:57:48;4.70;;;2.20;;
43118;SDS011;28729;49.838;8.650;2023-03-16T23:01:51;7.18;;;2.20;;
43118;SDS011;28729;49.838;8.650;2023-03-16T23:05:53;3.40;;;1.63;;
43118;SDS011;28729;49.838;8.650;2023-03-16T23:09:55;4.35;;;2.53;;
43118;SDS011;28729;49.838;8.650;2023-03-16T23:13:57;3.60;;;2.13;;
43118;SDS011;28729;49.838;8.650;2023-03-16T23:18:00;3.88;;;1.98;;
43118;SDS011;28729;49.838;8.650;2023-03-16T23:22:03;3.92;;;2.10;;
43118;SDS011;28729;49.838;8.650;2023-03-16T23:26:16;5.57;;;2.20;;
43118;SDS011;28729;49.838;8.650;2023-03-16T23:30:22;4.50;;;2.30;;
43118;SDS011;28729;49.838;8.650;2023-03-16T23:34:26;3.50;;;2.05;;
43118;SDS011;28729;49.838;8.650;2023-03-16T23:38:27;5.30;;;2.72;;
43118;SDS011;28729;49.838;8.650;2023-03-16T23:42:29;6.07;;;2.72;;
43118;SDS011;28729;49.838;8.650;2023-03-16T23:46:30;4.35;;;2.50;;
43118;SDS011;28729;49.838;8.650;2023-03-16T23:50:33;4.75;;;2.25;;
43118;SDS011;28729;49.838;8.650;2023-03-16T23:54:36;4.50;;;1.95;;
43118;SDS011;28729;49.838;8.650;2023-03-16T23:58:38;4.85;;;1.73;;
